createdAt,value
2023-04-20T00:01:48.818Z,1.10
2023-04-20T00:04:16.111Z,1.10
2023-04-20T00:06:44.063Z,1.20
2023-04-20T00:09:13.784Z,1.20
2023-04-20T00:11:41.209Z,1.00
2023-04-20T00:14:08.144Z,0.70
2023-04-20T00:16:35.187Z,0.60
2023-04-20T00:19:02.523Z,0.50
2023-04-20T00:21:29.630Z,0.40
2023-04-20T00:23:56.555Z,0.30
2023-04-20T00:26:23.411Z,0.20
2023-04-20T00:28:52.027Z,0.20
2023-04-20T00:31:21.012Z,0.20
2023-04-20T00:33:48.842Z,0.30
2023-04-20T00:36:16.125Z,0.40
2023-04-20T00:38:42.999Z,0.30
2023-04-20T00:41:09.930Z,0.20
2023-04-20T00:43:37.410Z,0.20
2023-04-20T00:46:04.505Z,0.20
2023-04-20T00:48:31.594Z,0.40
2023-04-20T00:50:59.218Z,0.60
2023-04-20T00:53:26.110Z,0.70
2023-04-20T00:55:53.389Z,0.70
2023-04-20T00:58:20.507Z,0.70
2023-04-20T01:00:47.590Z,0.70
2023-04-20T01:03:14.622Z,0.80
2023-04-20T01:05:41.844Z,0.70
2023-04-20T01:08:08.697Z,0.70
2023-04-20T01:10:36.112Z,0.70
2023-04-20T01:13:03.683Z,0.50
2023-04-20T01:15:30.550Z,0.40
2023-04-20T01:17:57.899Z,0.30
2023-04-20T01:20:25.084Z,0.20
2023-04-20T01:22:55.971Z,0.20
2023-04-20T01:25:23.249Z,0.10
2023-04-20T01:27:50.192Z,0.10
2023-04-20T01:30:17.230Z,0.20
2023-04-20T01:32:45.367Z,0.20
2023-04-20T01:35:12.746Z,0.20
2023-04-20T01:37:42.855Z,0.10
2023-04-20T01:40:13.171Z,0.00
2023-04-20T01:42:40.967Z,0.00
2023-04-20T01:45:08.703Z,0.00
2023-04-20T01:47:37.709Z,0.00
2023-04-20T01:50:05.120Z,0.10
2023-04-20T01:52:31.979Z,0.10
2023-04-20T01:54:58.877Z,0.20
2023-04-20T01:57:25.786Z,0.40
2023-04-20T01:59:52.623Z,0.50
2023-04-20T02:02:19.548Z,0.50
2023-04-20T02:04:46.540Z,0.60
2023-04-20T02:07:13.446Z,0.70
2023-04-20T02:09:40.298Z,0.90
2023-04-20T02:12:07.289Z,1.00
2023-04-20T02:14:34.135Z,1.00
2023-04-20T02:17:01.881Z,1.00
2023-04-20T02:19:28.775Z,1.00
2023-04-20T02:21:55.670Z,0.90
2023-04-20T02:24:22.545Z,0.70
2023-04-20T02:26:49.517Z,0.50
2023-04-20T02:29:16.946Z,0.40
2023-04-20T02:31:45.035Z,0.30
2023-04-20T02:34:11.999Z,0.20
2023-04-20T02:36:38.972Z,0.10
2023-04-20T02:39:05.914Z,0.00
2023-04-20T02:41:32.889Z,-0.20
2023-04-20T02:43:59.846Z,-0.30
2023-04-20T02:46:26.759Z,-0.50
2023-04-20T02:48:55.352Z,-0.50
2023-04-20T02:51:22.402Z,-0.30
2023-04-20T02:53:49.258Z,-0.20
2023-04-20T02:56:16.214Z,0.10
2023-04-20T02:58:43.084Z,0.40
2023-04-20T03:01:10.192Z,0.60
2023-04-20T03:03:37.252Z,0.70
2023-04-20T03:06:04.727Z,0.70
2023-04-20T03:08:31.595Z,0.80
2023-04-20T03:10:58.583Z,0.90
2023-04-20T03:13:25.602Z,1.00
2023-04-20T03:15:52.450Z,1.20
2023-04-20T03:18:19.318Z,1.20
2023-04-20T03:20:46.636Z,1.20
2023-04-20T03:23:13.483Z,1.20
2023-04-20T03:25:40.449Z,1.20
2023-04-20T03:28:07.325Z,1.20
2023-04-20T03:30:34.328Z,1.20
2023-04-20T03:33:01.256Z,1.20
2023-04-20T03:35:28.129Z,1.20
2023-04-20T03:37:55.364Z,1.20
2023-04-20T03:40:22.326Z,1.20
2023-04-20T03:42:49.266Z,1.20
2023-04-20T03:45:18.031Z,1.20
2023-04-20T03:47:45.055Z,1.20
2023-04-20T03:50:12.118Z,1.20
2023-04-20T03:52:39.025Z,1.20
2023-04-20T03:55:06.903Z,1.20
2023-04-20T03:57:34.398Z,1.20
2023-04-20T04:00:01.380Z,1.20
2023-04-20T04:02:28.386Z,1.20
2023-04-20T04:04:55.636Z,1.30
2023-04-20T04:07:22.851Z,1.30
2023-04-20T04:09:49.723Z,1.30
2023-04-20T04:12:17.833Z,1.40
2023-04-20T04:14:44.732Z,1.40
2023-04-20T04:17:14.684Z,1.40
2023-04-20T04:19:43.441Z,1.50
2023-04-20T04:22:10.485Z,1.50
2023-04-20T04:24:38.809Z,1.60
2023-04-20T04:27:05.996Z,1.60
2023-04-20T04:29:35.792Z,1.60
2023-04-20T04:32:04.819Z,1.70
2023-04-20T04:34:35.392Z,1.70
2023-04-20T04:37:02.360Z,1.70
2023-04-20T04:39:30.553Z,1.60
2023-04-20T04:41:57.645Z,1.60
2023-04-20T04:44:25.902Z,1.50
2023-04-20T04:46:52.801Z,1.50
2023-04-20T04:49:20.547Z,1.50
2023-04-20T04:51:47.941Z,1.50
2023-04-20T04:54:14.890Z,1.50
2023-04-20T04:56:41.748Z,1.60
2023-04-20T04:59:08.673Z,1.60
2023-04-20T05:01:35.551Z,1.50
2023-04-20T05:04:02.656Z,1.60
2023-04-20T05:06:29.700Z,1.60
2023-04-20T05:08:56.639Z,1.60
2023-04-20T05:11:23.545Z,1.60
2023-04-20T05:13:50.460Z,1.60
2023-04-20T05:16:17.410Z,1.60
2023-04-20T05:18:44.373Z,1.70
2023-04-20T05:21:11.246Z,1.70
2023-04-20T05:23:38.379Z,1.80
2023-04-20T05:26:06.232Z,1.90
2023-04-20T05:28:36.380Z,2.00
2023-04-20T05:31:03.320Z,2.20
2023-04-20T05:33:30.147Z,2.40
2023-04-20T05:35:58.214Z,2.60
2023-04-20T05:38:25.788Z,2.70
2023-04-20T05:40:52.775Z,2.80
2023-04-20T05:43:19.829Z,3.00
2023-04-20T05:45:48.833Z,3.10
2023-04-20T05:48:15.780Z,3.10
2023-04-20T05:50:42.750Z,3.30
2023-04-20T05:53:09.672Z,3.40
2023-04-20T05:55:36.643Z,3.30
2023-04-20T05:58:04.012Z,3.40
2023-04-20T06:00:31.266Z,3.50
2023-04-20T06:02:58.277Z,3.60
2023-04-20T06:05:25.385Z,3.70
2023-04-20T06:07:52.879Z,3.80
2023-04-20T06:10:19.833Z,3.90
2023-04-20T06:12:47.572Z,4.10
2023-04-20T06:15:14.482Z,4.30
2023-04-20T06:17:41.676Z,4.30
2023-04-20T06:20:11.552Z,4.30
2023-04-20T06:22:44.422Z,4.30
2023-04-20T06:25:12.557Z,4.20
2023-04-20T06:27:39.824Z,4.30
2023-04-20T06:30:07.842Z,4.40
2023-04-20T06:32:34.768Z,4.40
2023-04-20T06:35:01.688Z,4.40
2023-04-20T06:37:28.542Z,4.40
2023-04-20T06:39:55.867Z,4.30
2023-04-20T06:42:23.261Z,4.20
2023-04-20T06:44:50.684Z,4.20
2023-04-20T06:47:17.625Z,4.30
2023-04-20T06:49:44.510Z,4.40
2023-04-20T06:52:11.469Z,4.60
2023-04-20T06:54:38.345Z,4.90
2023-04-20T06:57:05.449Z,5.20
2023-04-20T06:59:32.358Z,5.20
2023-04-20T07:01:59.298Z,5.20
2023-04-20T07:04:26.206Z,5.30
2023-04-20T07:06:54.244Z,5.40
2023-04-20T07:09:22.915Z,5.60
2023-04-20T07:11:49.993Z,5.90
2023-04-20T07:14:16.904Z,5.80
2023-04-20T07:16:43.796Z,5.80
2023-04-20T07:19:10.722Z,5.80
2023-04-20T07:21:37.656Z,5.80
2023-04-20T07:24:05.808Z,5.80
2023-04-20T07:26:32.696Z,5.90
2023-04-20T07:28:59.587Z,6.00
2023-04-20T07:31:26.537Z,5.90
2023-04-20T07:33:53.670Z,6.00
2023-04-20T07:36:22.342Z,6.10
2023-04-20T07:38:52.103Z,6.20
2023-04-20T07:41:19.013Z,6.30
2023-04-20T07:43:46.177Z,6.30
2023-04-20T07:46:23.809Z,6.60
2023-04-20T07:48:50.786Z,6.90
2023-04-20T07:51:17.650Z,7.30
2023-04-20T07:53:44.529Z,7.40
2023-04-20T07:56:11.629Z,7.20
2023-04-20T07:58:40.836Z,7.20
2023-04-20T08:03:59.610Z,7.70
2023-04-20T08:06:27.203Z,8.10
2023-04-20T08:08:54.227Z,8.40
2023-04-20T08:11:21.580Z,8.50
2023-04-20T08:13:48.450Z,8.80
2023-04-20T08:16:15.464Z,8.60
2023-04-20T08:18:42.515Z,8.70
2023-04-20T08:21:09.666Z,8.50
2023-04-20T08:23:36.563Z,8.40
2023-04-20T08:26:04.864Z,8.50
2023-04-20T08:28:33.875Z,8.50
2023-04-20T08:31:01.832Z,8.20
2023-04-20T08:33:29.210Z,8.10
2023-04-20T08:35:56.168Z,8.20
2023-04-20T08:38:33.425Z,8.20
2023-04-20T08:41:01.541Z,8.30
2023-04-20T08:43:28.602Z,8.50
2023-04-20T08:46:01.510Z,8.70
2023-04-20T08:48:36.654Z,9.20
2023-04-20T08:51:06.841Z,9.80
2023-04-20T08:53:34.009Z,9.80
2023-04-20T08:56:01.106Z,9.70
2023-04-20T08:58:33.041Z,9.90
2023-04-20T09:01:01.120Z,10.00
2023-04-20T09:03:38.931Z,9.60
2023-04-20T09:06:16.550Z,9.40
2023-04-20T09:08:48.543Z,9.50
2023-04-20T09:11:27.393Z,9.20
2023-04-20T09:14:16.071Z,9.50
2023-04-20T09:17:01.669Z,9.60
2023-04-20T09:19:31.189Z,9.60
2023-04-20T09:22:05.099Z,10.10
2023-04-20T09:24:37.429Z,10.70
2023-04-20T09:27:19.085Z,10.90
2023-04-20T09:30:03.678Z,11.00
2023-04-20T09:32:30.813Z,10.90
2023-04-20T09:34:57.722Z,10.60
2023-04-20T09:37:25.487Z,10.20
2023-04-20T09:40:00.502Z,10.10
2023-04-20T09:42:28.998Z,10.10
2023-04-20T09:44:57.283Z,9.90
2023-04-20T09:47:26.643Z,9.40
2023-04-20T09:49:54.645Z,9.20
2023-04-20T09:52:22.625Z,9.10
2023-04-20T09:54:51.667Z,9.00
2023-04-20T09:57:20.769Z,9.10
2023-04-20T09:59:53.190Z,9.30
2023-04-20T10:02:20.641Z,9.60
2023-04-20T10:04:58.547Z,9.80
2023-04-20T10:07:33.072Z,9.70
2023-04-20T10:10:16.273Z,9.80
2023-04-20T10:12:56.730Z,9.70
2023-04-20T10:15:27.116Z,9.20
2023-04-20T10:17:54.139Z,8.90
2023-04-20T10:20:27.899Z,9.00
2023-04-20T10:23:11.156Z,9.20
2023-04-20T10:25:38.409Z,9.40
2023-04-20T10:28:09.620Z,9.40
2023-04-20T10:30:49.704Z,9.10
2023-04-20T10:33:17.899Z,9.00
2023-04-20T10:35:56.301Z,9.10
2023-04-20T10:38:35.360Z,9.20
2023-04-20T10:41:13.256Z,9.10
2023-04-20T10:43:43.510Z,9.00
2023-04-20T10:46:24.073Z,8.90
2023-04-20T10:49:03.735Z,9.10
2023-04-20T10:51:30.777Z,9.70
2023-04-20T10:54:07.544Z,9.40
2023-04-20T10:56:53.507Z,9.30
2023-04-20T10:59:24.719Z,9.40
2023-04-20T11:01:53.901Z,9.40
2023-04-20T11:04:32.258Z,9.70
2023-04-20T11:07:13.300Z,10.20
2023-04-20T11:09:42.275Z,9.70
2023-04-20T11:12:15.940Z,9.50
2023-04-20T11:15:02.639Z,9.40
2023-04-20T11:17:38.509Z,9.80
2023-04-20T11:20:17.407Z,10.20
2023-04-20T11:22:44.795Z,10.20
2023-04-20T11:25:12.720Z,10.30
2023-04-20T11:27:40.756Z,10.10
2023-04-20T11:30:09.795Z,10.10
2023-04-20T11:32:38.125Z,10.20
2023-04-20T11:35:10.823Z,10.10
2023-04-20T11:37:51.285Z,9.80
2023-04-20T11:40:18.476Z,10.30
2023-04-20T11:42:46.181Z,10.20
2023-04-20T11:45:13.151Z,9.90
2023-04-20T11:47:41.486Z,9.90
2023-04-20T11:50:10.314Z,10.20
2023-04-20T11:52:37.377Z,10.20
2023-04-20T11:55:04.966Z,9.90
2023-04-20T11:57:31.901Z,9.70
2023-04-20T11:59:58.904Z,9.80
2023-04-20T12:02:25.939Z,10.10
2023-04-20T12:04:52.978Z,9.80
2023-04-20T12:07:19.971Z,9.40
2023-04-20T12:09:46.911Z,9.10
2023-04-20T12:12:13.843Z,8.90
2023-04-20T12:14:41.039Z,8.80
2023-04-20T12:17:08.273Z,8.90
2023-04-20T12:19:35.265Z,9.10
2023-04-20T12:22:02.346Z,9.20
2023-04-20T12:24:29.420Z,9.40
2023-04-20T12:26:59.077Z,9.30
2023-04-20T12:29:25.959Z,9.30
2023-04-20T12:31:52.922Z,9.40
2023-04-20T12:34:20.134Z,9.10
2023-04-20T12:36:47.221Z,8.90
2023-04-20T12:39:14.336Z,8.80
2023-04-20T12:41:42.247Z,8.90
2023-04-20T12:44:11.535Z,9.00
2023-04-20T12:46:38.725Z,9.00
2023-04-20T12:49:06.043Z,9.10
2023-04-20T12:51:33.011Z,9.10
2023-04-20T12:54:00.072Z,9.10
2023-04-20T12:56:26.991Z,9.20
2023-04-20T12:58:53.944Z,9.30
2023-04-20T13:01:20.921Z,9.40
2023-04-20T13:03:50.693Z,9.70
2023-04-20T13:06:17.756Z,9.90
2023-04-20T13:08:44.644Z,9.70
2023-04-20T13:11:15.175Z,10.10
2023-04-20T13:13:42.476Z,10.40
2023-04-20T13:16:09.559Z,10.50
2023-04-20T13:18:36.675Z,10.50
2023-04-20T13:21:03.851Z,10.30
2023-04-20T13:23:30.728Z,10.40
2023-04-20T13:26:00.467Z,10.50
2023-04-20T13:28:27.732Z,10.90
2023-04-20T13:30:57.297Z,11.20
2023-04-20T13:33:24.725Z,11.70
2023-04-20T13:35:52.980Z,11.80
2023-04-20T13:38:19.885Z,11.70
2023-04-20T13:40:48.122Z,11.70
2023-04-20T13:43:15.260Z,11.70
2023-04-20T13:45:42.182Z,11.80
2023-04-20T13:48:09.128Z,12.40
2023-04-20T13:50:36.053Z,12.70
2023-04-20T13:53:03.296Z,12.40
2023-04-20T13:55:31.370Z,12.00
2023-04-20T13:57:58.310Z,12.20
2023-04-20T14:00:25.954Z,11.90
2023-04-20T14:02:53.068Z,11.30
2023-04-20T14:05:20.386Z,11.30
2023-04-20T14:07:47.346Z,11.60
2023-04-20T14:10:14.255Z,11.40
2023-04-20T14:12:41.298Z,11.00
2023-04-20T14:15:09.192Z,10.80
2023-04-20T14:17:36.163Z,11.10
2023-04-20T14:20:04.074Z,11.50
2023-04-20T14:22:35.650Z,11.70
2023-04-20T14:25:04.943Z,11.80
2023-04-20T14:27:32.495Z,12.20
2023-04-20T14:29:59.501Z,12.20
2023-04-20T14:32:26.506Z,12.00
2023-04-20T14:34:53.438Z,11.90
2023-04-20T14:37:20.411Z,11.80
2023-04-20T14:39:47.269Z,11.70
2023-04-20T14:42:14.236Z,11.80
2023-04-20T14:44:41.200Z,11.90
2023-04-20T14:47:08.210Z,11.80
2023-04-20T14:49:35.067Z,11.80
2023-04-20T14:52:02.066Z,11.80
2023-04-20T14:54:30.224Z,11.80
2023-04-20T14:56:57.112Z,11.70
2023-04-20T14:59:26.145Z,11.70
2023-04-20T15:02:02.181Z,11.80
2023-04-20T15:04:30.422Z,11.90
2023-04-20T15:06:57.758Z,11.90
2023-04-20T15:09:25.343Z,11.80
2023-04-20T15:11:52.309Z,11.80
2023-04-20T15:14:20.214Z,11.80
2023-04-20T15:16:47.272Z,12.00
2023-04-20T15:19:14.149Z,12.20
2023-04-20T15:21:42.582Z,12.50
2023-04-20T15:24:10.236Z,12.40
2023-04-20T15:26:37.121Z,12.20
2023-04-20T15:29:04.090Z,12.10
2023-04-20T15:31:31.105Z,12.10
2023-04-20T15:34:00.608Z,12.00
2023-04-20T15:36:27.644Z,11.80
2023-04-20T15:38:57.565Z,11.90
2023-04-20T15:41:24.933Z,11.80
2023-04-20T15:43:51.886Z,11.90
2023-04-20T15:46:23.103Z,12.40
2023-04-20T15:48:50.190Z,13.90
2023-04-20T15:51:19.867Z,15.00
2023-04-20T15:53:50.401Z,15.40
2023-04-20T15:56:22.474Z,15.70
2023-04-20T15:58:53.610Z,15.50
2023-04-20T16:01:21.111Z,15.80
2023-04-20T16:03:49.866Z,15.90
2023-04-20T16:06:16.952Z,15.70
2023-04-20T16:08:43.895Z,14.80
2023-04-20T16:11:10.921Z,14.30
2023-04-20T16:13:37.987Z,14.90
2023-04-20T16:16:05.278Z,15.30
2023-04-20T16:18:32.909Z,15.20
2023-04-20T16:20:59.903Z,15.40
2023-04-20T16:23:26.877Z,15.70
2023-04-20T16:25:53.839Z,16.00
2023-04-20T16:28:20.797Z,15.80
2023-04-20T16:30:47.868Z,15.70
2023-04-20T16:33:15.260Z,15.90
2023-04-20T16:35:42.110Z,15.90
2023-04-20T16:38:10.666Z,15.70
2023-04-20T16:40:37.761Z,15.50
2023-04-20T16:43:04.782Z,14.30
2023-04-20T16:45:33.426Z,13.30
2023-04-20T16:48:00.574Z,12.50
2023-04-20T16:50:28.114Z,12.00
2023-04-20T16:52:55.079Z,11.50
2023-04-20T16:55:22.015Z,11.00
2023-04-20T16:57:48.964Z,10.60
2023-04-20T17:00:16.807Z,10.50
2023-04-20T17:02:43.901Z,10.30
2023-04-20T17:05:11.263Z,10.10
2023-04-20T17:07:38.221Z,9.90
2023-04-20T17:10:06.023Z,9.70
2023-04-20T17:12:32.887Z,9.60
2023-04-20T17:15:00.610Z,9.40
2023-04-20T17:17:28.162Z,9.40
2023-04-20T17:19:55.208Z,9.30
2023-04-20T17:22:22.280Z,9.20
2023-04-20T17:24:49.458Z,9.10
2023-04-20T17:27:16.389Z,9.00
2023-04-20T17:29:44.664Z,8.90
2023-04-20T17:32:12.203Z,8.80
2023-04-20T17:34:39.900Z,8.80
2023-04-20T17:37:07.219Z,8.80
2023-04-20T17:39:34.085Z,8.80
2023-04-20T17:42:01.506Z,8.80
2023-04-20T17:44:28.646Z,8.80
2023-04-20T17:46:55.703Z,8.80
2023-04-20T17:49:22.581Z,8.70
2023-04-20T17:51:49.484Z,8.60
2023-04-20T17:54:16.630Z,8.40
2023-04-20T17:56:43.749Z,8.20
2023-04-20T17:59:12.050Z,8.10
2023-04-20T18:01:39.049Z,7.90
2023-04-20T18:04:06.383Z,7.80
2023-04-20T18:06:34.134Z,7.70
2023-04-20T18:09:01.545Z,7.60
2023-04-20T18:11:28.472Z,7.50
2023-04-20T18:13:55.430Z,7.40
2023-04-20T18:16:22.929Z,7.40
2023-04-20T18:18:53.226Z,7.30
2023-04-20T18:21:20.516Z,7.20
2023-04-20T18:23:47.718Z,7.20
2023-04-20T18:26:17.529Z,7.00
2023-04-20T18:28:45.195Z,7.00
2023-04-20T18:31:13.125Z,6.90
2023-04-20T18:33:40.603Z,6.90
2023-04-20T18:36:07.709Z,6.90
2023-04-20T18:38:35.155Z,6.90
2023-04-20T18:41:02.888Z,6.90
2023-04-20T18:43:29.767Z,6.80
2023-04-20T18:45:56.651Z,6.80
2023-04-20T18:48:23.737Z,6.80
2023-04-20T18:50:50.926Z,6.80
2023-04-20T18:53:17.819Z,6.80
2023-04-20T18:55:44.754Z,6.80
2023-04-20T18:58:11.686Z,6.80
2023-04-20T19:00:38.806Z,6.80
2023-04-20T19:03:06.013Z,6.80
2023-04-20T19:05:33.151Z,6.90
2023-04-20T19:08:00.110Z,7.00
2023-04-20T19:10:27.035Z,7.00
2023-04-20T19:12:59.070Z,7.00
2023-04-20T19:15:26.259Z,7.00
2023-04-20T19:17:55.815Z,7.00
2023-04-20T19:20:26.340Z,7.00
2023-04-20T19:22:53.506Z,7.00
2023-04-20T19:25:20.578Z,7.00
2023-04-20T19:27:47.497Z,7.10
2023-04-20T19:30:14.655Z,7.30
2023-04-20T19:32:41.591Z,7.20
2023-04-20T19:35:08.622Z,7.30
2023-04-20T19:37:35.688Z,7.30
2023-04-20T19:40:05.802Z,7.40
2023-04-20T19:42:32.799Z,7.50
2023-04-20T19:44:59.891Z,7.50
2023-04-20T19:47:27.215Z,7.60
2023-04-20T19:49:57.341Z,7.60
2023-04-20T19:52:24.282Z,7.70
2023-04-20T19:54:51.201Z,7.70
2023-04-20T19:57:18.088Z,7.90
2023-04-20T19:59:44.926Z,7.90
2023-04-20T20:02:11.830Z,7.80
2023-04-20T20:04:39.274Z,7.80
2023-04-20T20:07:06.335Z,7.70
2023-04-20T20:09:33.259Z,7.60
2023-04-20T20:12:01.049Z,7.60
2023-04-20T20:14:28.034Z,7.60
2023-04-20T20:16:56.476Z,7.60
2023-04-20T20:19:24.007Z,7.60
2023-04-20T20:21:51.388Z,7.60
2023-04-20T20:24:18.378Z,7.60
2023-04-20T20:26:45.303Z,7.60
2023-04-20T20:29:12.207Z,7.60
2023-04-20T20:31:39.116Z,7.70
2023-04-20T20:34:07.302Z,7.70
2023-04-20T20:36:36.034Z,7.70
2023-04-20T20:39:05.127Z,7.80
2023-04-20T20:41:32.448Z,7.80
2023-04-20T20:43:59.666Z,7.80
2023-04-20T20:46:26.725Z,7.80
2023-04-20T20:48:55.038Z,7.80
2023-04-20T20:51:22.076Z,7.80
2023-04-20T20:53:49.023Z,7.90
2023-04-20T20:56:16.006Z,7.90
2023-04-20T20:58:42.967Z,8.00
2023-04-20T21:01:09.875Z,8.10
2023-04-20T21:03:37.122Z,8.10
2023-04-20T21:06:04.681Z,8.20
2023-04-20T21:08:31.568Z,8.20
2023-04-20T21:10:58.420Z,8.20
2023-04-20T21:13:25.415Z,8.20
2023-04-20T21:15:55.586Z,8.20
2023-04-20T21:18:22.464Z,8.20
2023-04-20T21:20:49.444Z,8.30
2023-04-20T21:23:16.415Z,8.30
2023-04-20T21:25:43.253Z,8.40
2023-04-20T21:28:10.218Z,8.40
2023-04-20T21:30:37.103Z,8.50
2023-04-20T21:33:04.248Z,8.50
2023-04-20T21:35:31.251Z,8.50
2023-04-20T21:37:58.109Z,8.50
2023-04-20T21:40:25.259Z,8.50
2023-04-20T21:42:52.330Z,8.40
2023-04-20T21:45:19.286Z,8.40
2023-04-20T21:47:46.300Z,8.40
2023-04-20T21:50:13.282Z,8.50
2023-04-20T21:52:40.580Z,8.50
2023-04-20T21:55:08.087Z,8.50
2023-04-20T21:57:34.924Z,8.40
2023-04-20T22:00:01.826Z,8.30
2023-04-20T22:02:28.872Z,8.20
2023-04-20T22:04:56.123Z,8.00
2023-04-20T22:07:23.816Z,7.90
2023-04-20T22:09:50.691Z,7.80
2023-04-20T22:12:32.187Z,7.70
2023-04-20T22:15:15.085Z,7.50
2023-04-20T22:17:46.389Z,7.50
2023-04-20T22:20:16.753Z,7.30
2023-04-20T22:22:43.640Z,7.20
2023-04-20T22:25:10.654Z,7.10
2023-04-20T22:27:38.360Z,7.00
2023-04-20T22:30:08.775Z,6.90
2023-04-20T22:32:38.329Z,6.90
2023-04-20T22:35:05.949Z,6.90
2023-04-20T22:37:32.911Z,6.90
2023-04-20T22:39:59.880Z,6.90
2023-04-20T22:42:26.960Z,6.90
2023-04-20T22:44:53.885Z,6.90
2023-04-20T22:47:21.067Z,6.70
2023-04-20T22:49:49.012Z,6.60
2023-04-20T22:52:16.285Z,6.60
2023-04-20T22:54:47.834Z,6.50
2023-04-20T22:57:18.182Z,6.40
2023-04-20T22:59:45.449Z,6.30
2023-04-20T23:02:12.535Z,6.20
2023-04-20T23:04:39.493Z,6.20
2023-04-20T23:07:08.152Z,6.20
2023-04-20T23:09:39.732Z,6.20
2023-04-20T23:12:10.248Z,6.10
2023-04-20T23:14:39.129Z,6.00
2023-04-20T23:17:06.642Z,6.00
2023-04-20T23:19:33.874Z,6.00
2023-04-20T23:22:03.250Z,5.90
2023-04-20T23:24:30.391Z,5.90
2023-04-20T23:26:58.057Z,5.80
2023-04-20T23:29:25.112Z,5.80
2023-04-20T23:31:52.042Z,5.70
2023-04-20T23:34:19.433Z,5.70
2023-04-20T23:36:46.866Z,5.70
2023-04-20T23:39:13.722Z,5.70
2023-04-20T23:41:40.615Z,5.70
2023-04-20T23:44:07.468Z,5.70
2023-04-20T23:46:34.447Z,5.70
2023-04-20T23:49:01.416Z,5.60
2023-04-20T23:51:28.524Z,5.60
2023-04-20T23:53:55.622Z,5.60
2023-04-20T23:56:22.529Z,5.50
2023-04-20T23:58:49.404Z,5.50
